sensor_id;sensor_type;location;lat;lon;timestamp;temperature;humidity
17284;DHT22;8760;52.248;20.952;2024-01-30T00:02:18;1.90;99.90
17284;DHT22;8760;52.248;20.952;2024-01-30T00:04:44;1.90;99.90
17284;DHT22;8760;52.248;20.952;2024-01-30T00:07:13;1.90;99.90
17284;DHT22;8760;52.248;20.952;2024-01-30T00:09:39;1.90;99.90
17284;DHT22;8760;52.248;20.952;2024-01-30T00:12:07;1.90;99.90
17284;DHT22;8760;52.248;20.952;2024-01-30T00:14:33;1.90;99.90
17284;DHT22;8760;52.248;20.952;2024-01-30T00:17:00;1.90;99.90
17284;DHT22;8760;52.248;20.952;2024-01-30T00:19:27;1.80;99.90
17284;DHT22;8760;52.248;20.952;2024-01-30T00:21:54;1.80;99.90
17284;DHT22;8760;52.248;20.952;2024-01-30T00:24:22;1.70;99.90
17284;DHT22;8760;52.248;20.952;2024-01-30T00:26:49;1.80;99.90
17284;DHT22;8760;52.248;20.952;2024-01-30T00:29:17;1.80;99.90
17284;DHT22;8760;52.248;20.952;2024-01-30T00:31:45;1.80;99.90
17284;DHT22;8760;52.248;20.952;2024-01-30T00:34:12;1.80;99.90
17284;DHT22;8760;52.248;20.952;2024-01-30T00:36:38;1.70;99.90
17284;DHT22;8760;52.248;20.952;2024-01-30T00:39:05;1.70;99.90
17284;DHT22;8760;52.248;20.952;2024-01-30T00:41:35;1.80;99.90
17284;DHT22;8760;52.248;20.952;2024-01-30T00:44:02;1.70;99.90
17284;DHT22;8760;52.248;20.952;2024-01-30T00:46:29;1.80;99.90
17284;DHT22;8760;52.248;20.952;2024-01-30T00:48:56;1.80;99.90
17284;DHT22;8760;52.248;20.952;2024-01-30T00:51:23;1.80;99.90
17284;DHT22;8760;52.248;20.952;2024-01-30T00:53:50;1.70;99.90
17284;DHT22;8760;52.248;20.952;2024-01-30T00:56:17;1.80;99.90
17284;DHT22;8760;52.248;20.952;2024-01-30T00:58:46;1.90;99.90
17284;DHT22;8760;52.248;20.952;2024-01-30T01:01:12;1.90;99.90
17284;DHT22;8760;52.248;20.952;2024-01-30T01:03:40;1.90;99.90
17284;DHT22;8760;52.248;20.952;2024-01-30T01:06:09;1.80;99.90
17284;DHT22;8760;52.248;20.952;2024-01-30T01:08:36;1.80;99.90
17284;DHT22;8760;52.248;20.952;2024-01-30T01:11:03;1.80;99.90
17284;DHT22;8760;52.248;20.952;2024-01-30T01:13:30;1.70;99.90
17284;DHT22;8760;52.248;20.952;2024-01-30T01:15:58;1.80;99.90
17284;DHT22;8760;52.248;20.952;2024-01-30T01:18:25;1.70;99.90
17284;DHT22;8760;52.248;20.952;2024-01-30T01:20:52;1.70;99.90
17284;DHT22;8760;52.248;20.952;2024-01-30T01:23:19;1.70;99.90
17284;DHT22;8760;52.248;20.952;2024-01-30T01:25:46;1.70;99.90
17284;DHT22;8760;52.248;20.952;2024-01-30T01:28:13;1.70;99.90
17284;DHT22;8760;52.248;20.952;2024-01-30T01:30:40;1.70;99.90
17284;DHT22;8760;52.248;20.952;2024-01-30T01:33:08;1.70;99.90
17284;DHT22;8760;52.248;20.952;2024-01-30T01:35:35;1.70;99.90
17284;DHT22;8760;52.248;20.952;2024-01-30T01:38:02;1.60;99.90
17284;DHT22;8760;52.248;20.952;2024-01-30T01:40:29;1.60;99.90
17284;DHT22;8760;52.248;20.952;2024-01-30T01:42:56;1.60;99.90
17284;DHT22;8760;52.248;20.952;2024-01-30T01:45:23;1.70;99.90
17284;DHT22;8760;52.248;20.952;2024-01-30T01:47:51;1.60;99.90
17284;DHT22;8760;52.248;20.952;2024-01-30T01:50:21;1.60;99.90
17284;DHT22;8760;52.248;20.952;2024-01-30T01:52:48;1.60;99.90
17284;DHT22;8760;52.248;20.952;2024-01-30T01:55:16;1.60;99.90
17284;DHT22;8760;52.248;20.952;2024-01-30T01:57:47;1.60;99.90
17284;DHT22;8760;52.248;20.952;2024-01-30T02:00:14;1.60;99.90
17284;DHT22;8760;52.248;20.952;2024-01-30T02:02:41;1.70;99.90
17284;DHT22;8760;52.248;20.952;2024-01-30T02:05:10;1.60;99.90
17284;DHT22;8760;52.248;20.952;2024-01-30T02:07:38;1.70;99.90
17284;DHT22;8760;52.248;20.952;2024-01-30T02:10:07;1.70;99.90
17284;DHT22;8760;52.248;20.952;2024-01-30T02:12:34;1.60;99.90
17284;DHT22;8760;52.248;20.952;2024-01-30T02:15:01;1.60;99.90
17284;DHT22;8760;52.248;20.952;2024-01-30T02:17:28;1.60;99.90
17284;DHT22;8760;52.248;20.952;2024-01-30T02:19:55;1.60;99.90
17284;DHT22;8760;52.248;20.952;2024-01-30T02:22:23;1.50;99.90
17284;DHT22;8760;52.248;20.952;2024-01-30T02:24:50;1.50;99.90
17284;DHT22;8760;52.248;20.952;2024-01-30T02:27:17;1.50;99.90
17284;DHT22;8760;52.248;20.952;2024-01-30T02:29:44;1.60;99.90
17284;DHT22;8760;52.248;20.952;2024-01-30T02:32:11;1.50;99.90
17284;DHT22;8760;52.248;20.952;2024-01-30T02:34:38;1.60;99.90
17284;DHT22;8760;52.248;20.952;2024-01-30T02:37:05;1.50;99.90
17284;DHT22;8760;52.248;20.952;2024-01-30T02:39:33;1.50;99.90
17284;DHT22;8760;52.248;20.952;2024-01-30T02:42:00;1.50;99.90
17284;DHT22;8760;52.248;20.952;2024-01-30T02:44:27;1.50;99.90
17284;DHT22;8760;52.248;20.952;2024-01-30T02:46:53;1.60;99.90
17284;DHT22;8760;52.248;20.952;2024-01-30T02:49:20;1.60;99.90
17284;DHT22;8760;52.248;20.952;2024-01-30T02:51:47;1.60;99.90
17284;DHT22;8760;52.248;20.952;2024-01-30T02:54:14;1.60;99.90
17284;DHT22;8760;52.248;20.952;2024-01-30T02:56:42;1.50;99.90
17284;DHT22;8760;52.248;20.952;2024-01-30T02:59:09;1.50;99.90
17284;DHT22;8760;52.248;20.952;2024-01-30T03:01:42;1.50;99.90
17284;DHT22;8760;52.248;20.952;2024-01-30T03:04:10;1.60;99.90
17284;DHT22;8760;52.248;20.952;2024-01-30T03:06:37;1.60;99.90
17284;DHT22;8760;52.248;20.952;2024-01-30T03:09:04;1.70;99.90
17284;DHT22;8760;52.248;20.952;2024-01-30T03:11:30;1.70;99.90
17284;DHT22;8760;52.248;20.952;2024-01-30T03:13:59;1.70;99.90
17284;DHT22;8760;52.248;20.952;2024-01-30T03:16:25;1.60;99.90
17284;DHT22;8760;52.248;20.952;2024-01-30T03:18:52;1.60;99.90
17284;DHT22;8760;52.248;20.952;2024-01-30T03:21:19;1.60;99.90
17284;DHT22;8760;52.248;20.952;2024-01-30T03:23:46;1.60;99.90
17284;DHT22;8760;52.248;20.952;2024-01-30T03:26:13;1.50;99.90
17284;DHT22;8760;52.248;20.952;2024-01-30T03:28:40;1.60;99.90
17284;DHT22;8760;52.248;20.952;2024-01-30T03:31:09;1.60;99.90
17284;DHT22;8760;52.248;20.952;2024-01-30T03:33:36;1.60;99.90
17284;DHT22;8760;52.248;20.952;2024-01-30T03:36:05;1.60;99.90
17284;DHT22;8760;52.248;20.952;2024-01-30T03:38:31;1.60;99.90
17284;DHT22;8760;52.248;20.952;2024-01-30T03:40:59;1.60;99.90
17284;DHT22;8760;52.248;20.952;2024-01-30T03:43:26;1.50;99.90
17284;DHT22;8760;52.248;20.952;2024-01-30T03:45:53;1.40;99.90
17284;DHT22;8760;52.248;20.952;2024-01-30T03:48:21;1.40;99.90
17284;DHT22;8760;52.248;20.952;2024-01-30T03:50:48;1.50;99.90
17284;DHT22;8760;52.248;20.952;2024-01-30T03:53:15;1.50;99.90
17284;DHT22;8760;52.248;20.952;2024-01-30T03:55:42;1.40;99.90
17284;DHT22;8760;52.248;20.952;2024-01-30T03:58:09;1.40;99.90
17284;DHT22;8760;52.248;20.952;2024-01-30T04:00:35;1.40;99.90
17284;DHT22;8760;52.248;20.952;2024-01-30T04:03:02;1.30;99.90
17284;DHT22;8760;52.248;20.952;2024-01-30T04:05:31;1.40;99.90
17284;DHT22;8760;52.248;20.952;2024-01-30T04:07:58;1.30;99.90
17284;DHT22;8760;52.248;20.952;2024-01-30T04:10:25;1.40;99.90
17284;DHT22;8760;52.248;20.952;2024-01-30T04:12:52;1.40;99.90
17284;DHT22;8760;52.248;20.952;2024-01-30T04:15:19;1.40;99.90
17284;DHT22;8760;52.248;20.952;2024-01-30T04:17:46;1.40;99.90
17284;DHT22;8760;52.248;20.952;2024-01-30T04:20:14;1.40;99.90
17284;DHT22;8760;52.248;20.952;2024-01-30T04:22:43;1.30;99.90
17284;DHT22;8760;52.248;20.952;2024-01-30T04:25:11;1.30;99.90
17284;DHT22;8760;52.248;20.952;2024-01-30T04:27:37;1.30;99.90
17284;DHT22;8760;52.248;20.952;2024-01-30T04:30:05;1.30;99.90
17284;DHT22;8760;52.248;20.952;2024-01-30T04:32:32;1.30;99.90
17284;DHT22;8760;52.248;20.952;2024-01-30T04:34:59;1.30;99.90
17284;DHT22;8760;52.248;20.952;2024-01-30T04:37:26;1.30;99.90
17284;DHT22;8760;52.248;20.952;2024-01-30T04:39:54;1.30;99.90
17284;DHT22;8760;52.248;20.952;2024-01-30T04:42:21;1.20;99.90
17284;DHT22;8760;52.248;20.952;2024-01-30T04:44:48;1.20;99.90
17284;DHT22;8760;52.248;20.952;2024-01-30T04:47:15;1.30;99.90
17284;DHT22;8760;52.248;20.952;2024-01-30T04:49:42;1.30;99.90
17284;DHT22;8760;52.248;20.952;2024-01-30T04:52:09;1.20;99.90
17284;DHT22;8760;52.248;20.952;2024-01-30T04:54:36;1.20;99.90
17284;DHT22;8760;52.248;20.952;2024-01-30T04:57:04;1.20;99.90
17284;DHT22;8760;52.248;20.952;2024-01-30T04:59:35;1.20;99.90
17284;DHT22;8760;52.248;20.952;2024-01-30T05:02:02;1.20;99.90
17284;DHT22;8760;52.248;20.952;2024-01-30T05:04:29;1.20;99.90
17284;DHT22;8760;52.248;20.952;2024-01-30T05:06:55;1.20;99.90
17284;DHT22;8760;52.248;20.952;2024-01-30T05:09:22;1.20;99.90
17284;DHT22;8760;52.248;20.952;2024-01-30T05:11:49;1.20;99.90
17284;DHT22;8760;52.248;20.952;2024-01-30T05:14:17;1.10;99.90
17284;DHT22;8760;52.248;20.952;2024-01-30T05:16:45;1.10;99.90
17284;DHT22;8760;52.248;20.952;2024-01-30T05:19:12;1.10;99.90
17284;DHT22;8760;52.248;20.952;2024-01-30T05:21:39;1.10;99.90
17284;DHT22;8760;52.248;20.952;2024-01-30T05:24:07;1.10;99.90
17284;DHT22;8760;52.248;20.952;2024-01-30T05:26:35;1.20;99.90
17284;DHT22;8760;52.248;20.952;2024-01-30T05:29:02;1.20;99.90
17284;DHT22;8760;52.248;20.952;2024-01-30T05:31:30;1.20;99.90
17284;DHT22;8760;52.248;20.952;2024-01-30T05:33:57;1.20;99.90
17284;DHT22;8760;52.248;20.952;2024-01-30T05:36:24;1.30;99.90
17284;DHT22;8760;52.248;20.952;2024-01-30T05:38:51;1.20;99.90
17284;DHT22;8760;52.248;20.952;2024-01-30T05:41:18;1.20;99.90
17284;DHT22;8760;52.248;20.952;2024-01-30T05:43:46;1.20;99.90
17284;DHT22;8760;52.248;20.952;2024-01-30T05:46:13;1.20;99.90
17284;DHT22;8760;52.248;20.952;2024-01-30T05:48:41;1.20;99.90
17284;DHT22;8760;52.248;20.952;2024-01-30T05:51:08;1.20;99.90
17284;DHT22;8760;52.248;20.952;2024-01-30T05:53:35;1.30;99.90
17284;DHT22;8760;52.248;20.952;2024-01-30T05:56:02;1.30;99.90
17284;DHT22;8760;52.248;20.952;2024-01-30T05:58:29;1.20;99.90
17284;DHT22;8760;52.248;20.952;2024-01-30T06:00:57;1.20;99.90
17284;DHT22;8760;52.248;20.952;2024-01-30T06:03:24;1.20;99.90
17284;DHT22;8760;52.248;20.952;2024-01-30T06:05:52;1.10;99.90
17284;DHT22;8760;52.248;20.952;2024-01-30T06:08:19;1.20;99.90
17284;DHT22;8760;52.248;20.952;2024-01-30T06:10:46;1.10;99.90
17284;DHT22;8760;52.248;20.952;2024-01-30T06:13:13;1.10;99.90
17284;DHT22;8760;52.248;20.952;2024-01-30T06:15:40;1.20;99.90
17284;DHT22;8760;52.248;20.952;2024-01-30T06:18:07;1.20;99.90
17284;DHT22;8760;52.248;20.952;2024-01-30T06:20:34;1.10;99.90
17284;DHT22;8760;52.248;20.952;2024-01-30T06:23:02;1.20;99.90
17284;DHT22;8760;52.248;20.952;2024-01-30T06:25:29;1.20;99.90
17284;DHT22;8760;52.248;20.952;2024-01-30T06:27:56;1.20;99.90
17284;DHT22;8760;52.248;20.952;2024-01-30T06:30:23;1.20;99.90
17284;DHT22;8760;52.248;20.952;2024-01-30T06:32:50;1.20;99.90
17284;DHT22;8760;52.248;20.952;2024-01-30T06:35:17;1.20;99.90
17284;DHT22;8760;52.248;20.952;2024-01-30T06:37:44;1.20;99.90
17284;DHT22;8760;52.248;20.952;2024-01-30T06:40:12;1.20;99.90
17284;DHT22;8760;52.248;20.952;2024-01-30T06:42:39;1.20;99.90
17284;DHT22;8760;52.248;20.952;2024-01-30T06:45:07;1.30;99.90
17284;DHT22;8760;52.248;20.952;2024-01-30T06:47:34;1.30;99.90
17284;DHT22;8760;52.248;20.952;2024-01-30T06:50:01;1.30;99.90
17284;DHT22;8760;52.248;20.952;2024-01-30T06:52:29;1.30;99.90
17284;DHT22;8760;52.248;20.952;2024-01-30T06:54:55;1.30;99.90
17284;DHT22;8760;52.248;20.952;2024-01-30T06:57:24;1.30;99.90
17284;DHT22;8760;52.248;20.952;2024-01-30T06:59:51;1.40;99.90
17284;DHT22;8760;52.248;20.952;2024-01-30T07:02:18;1.40;99.90
17284;DHT22;8760;52.248;20.952;2024-01-30T07:04:45;1.40;99.90
17284;DHT22;8760;52.248;20.952;2024-01-30T07:07:12;1.50;99.90
17284;DHT22;8760;52.248;20.952;2024-01-30T07:09:40;1.50;99.90
17284;DHT22;8760;52.248;20.952;2024-01-30T07:12:07;1.50;99.90
17284;DHT22;8760;52.248;20.952;2024-01-30T07:14:36;1.50;99.90
17284;DHT22;8760;52.248;20.952;2024-01-30T07:17:03;1.50;99.90
17284;DHT22;8760;52.248;20.952;2024-01-30T07:19:30;1.50;99.90
17284;DHT22;8760;52.248;20.952;2024-01-30T07:21:57;1.50;99.90
17284;DHT22;8760;52.248;20.952;2024-01-30T07:24:24;1.60;99.90
17284;DHT22;8760;52.248;20.952;2024-01-30T07:26:51;1.60;99.90
17284;DHT22;8760;52.248;20.952;2024-01-30T07:29:18;1.80;99.90
17284;DHT22;8760;52.248;20.952;2024-01-30T07:31:46;2.00;99.90
17284;DHT22;8760;52.248;20.952;2024-01-30T07:34:13;2.00;99.90
17284;DHT22;8760;52.248;20.952;2024-01-30T07:36:40;2.00;99.90
17284;DHT22;8760;52.248;20.952;2024-01-30T07:39:07;2.00;99.90
17284;DHT22;8760;52.248;20.952;2024-01-30T07:41:35;2.10;99.90
17284;DHT22;8760;52.248;20.952;2024-01-30T07:44:03;2.10;99.90
17284;DHT22;8760;52.248;20.952;2024-01-30T07:46:30;2.10;99.90
17284;DHT22;8760;52.248;20.952;2024-01-30T07:48:58;2.20;99.90
17284;DHT22;8760;52.248;20.952;2024-01-30T07:51:25;2.20;99.90
17284;DHT22;8760;52.248;20.952;2024-01-30T07:53:54;2.20;99.90
17284;DHT22;8760;52.248;20.952;2024-01-30T07:56:20;2.20;99.90
17284;DHT22;8760;52.248;20.952;2024-01-30T07:58:47;2.40;99.90
17284;DHT22;8760;52.248;20.952;2024-01-30T08:01:15;2.50;99.90
17284;DHT22;8760;52.248;20.952;2024-01-30T08:03:42;2.50;99.90
17284;DHT22;8760;52.248;20.952;2024-01-30T08:06:10;2.60;99.90
17284;DHT22;8760;52.248;20.952;2024-01-30T08:08:37;2.60;99.90
17284;DHT22;8760;52.248;20.952;2024-01-30T08:11:04;2.60;99.90
17284;DHT22;8760;52.248;20.952;2024-01-30T08:13:31;2.70;99.90
17284;DHT22;8760;52.248;20.952;2024-01-30T08:15:58;2.80;99.90
17284;DHT22;8760;52.248;20.952;2024-01-30T08:18:24;2.80;99.90
17284;DHT22;8760;52.248;20.952;2024-01-30T08:20:52;2.90;99.90
17284;DHT22;8760;52.248;20.952;2024-01-30T08:23:20;3.00;99.90
17284;DHT22;8760;52.248;20.952;2024-01-30T08:25:47;3.10;99.90
17284;DHT22;8760;52.248;20.952;2024-01-30T08:28:14;3.20;99.90
17284;DHT22;8760;52.248;20.952;2024-01-30T08:30:40;3.20;99.90
17284;DHT22;8760;52.248;20.952;2024-01-30T08:33:07;3.30;99.90
17284;DHT22;8760;52.248;20.952;2024-01-30T08:35:34;3.50;99.90
17284;DHT22;8760;52.248;20.952;2024-01-30T08:38:01;3.80;99.90
17284;DHT22;8760;52.248;20.952;2024-01-30T08:40:30;4.80;99.90
17284;DHT22;8760;52.248;20.952;2024-01-30T08:42:57;5.80;99.90
17284;DHT22;8760;52.248;20.952;2024-01-30T08:45:24;7.10;99.90
17284;DHT22;8760;52.248;20.952;2024-01-30T08:47:50;7.80;99.90
17284;DHT22;8760;52.248;20.952;2024-01-30T08:50:17;8.80;99.90
17284;DHT22;8760;52.248;20.952;2024-01-30T08:52:45;9.10;99.90
17284;DHT22;8760;52.248;20.952;2024-01-30T08:55:12;9.90;97.30
17284;DHT22;8760;52.248;20.952;2024-01-30T08:57:41;10.30;95.50
17284;DHT22;8760;52.248;20.952;2024-01-30T09:00:08;10.50;94.20
17284;DHT22;8760;52.248;20.952;2024-01-30T09:02:35;10.80;93.50
17284;DHT22;8760;52.248;20.952;2024-01-30T09:05:02;11.00;92.30
17284;DHT22;8760;52.248;20.952;2024-01-30T09:07:29;11.20;90.50
17284;DHT22;8760;52.248;20.952;2024-01-30T09:09:56;11.30;89.70
17284;DHT22;8760;52.248;20.952;2024-01-30T09:12:23;11.70;87.90
17284;DHT22;8760;52.248;20.952;2024-01-30T09:14:51;12.10;87.20
17284;DHT22;8760;52.248;20.952;2024-01-30T09:17:17;12.30;82.50
17284;DHT22;8760;52.248;20.952;2024-01-30T09:19:45;12.70;80.70
17284;DHT22;8760;52.248;20.952;2024-01-30T09:22:12;13.10;77.20
17284;DHT22;8760;52.248;20.952;2024-01-30T09:24:40;12.80;75.90
17284;DHT22;8760;52.248;20.952;2024-01-30T09:27:07;12.50;75.90
17284;DHT22;8760;52.248;20.952;2024-01-30T09:29:33;12.50;76.30
17284;DHT22;8760;52.248;20.952;2024-01-30T09:32:04;12.40;76.00
17284;DHT22;8760;52.248;20.952;2024-01-30T09:34:31;12.80;74.00
17284;DHT22;8760;52.248;20.952;2024-01-30T09:36:58;12.60;73.70
17284;DHT22;8760;52.248;20.952;2024-01-30T09:39:26;12.40;73.80
17284;DHT22;8760;52.248;20.952;2024-01-30T09:42:00;12.30;73.50
17284;DHT22;8760;52.248;20.952;2024-01-30T09:44:29;13.00;74.50
17284;DHT22;8760;52.248;20.952;2024-01-30T09:46:56;13.30;73.20
17284;DHT22;8760;52.248;20.952;2024-01-30T09:49:26;13.80;71.80
17284;DHT22;8760;52.248;20.952;2024-01-30T09:51:53;13.90;70.00
17284;DHT22;8760;52.248;20.952;2024-01-30T09:54:21;14.00;71.70
17284;DHT22;8760;52.248;20.952;2024-01-30T09:56:48;14.40;69.30
17284;DHT22;8760;52.248;20.952;2024-01-30T09:59:15;14.60;67.80
17284;DHT22;8760;52.248;20.952;2024-01-30T10:01:42;15.10;66.70
17284;DHT22;8760;52.248;20.952;2024-01-30T10:04:10;15.10;63.30
17284;DHT22;8760;52.248;20.952;2024-01-30T10:06:40;14.80;64.90
17284;DHT22;8760;52.248;20.952;2024-01-30T10:09:07;14.80;63.90
17284;DHT22;8760;52.248;20.952;2024-01-30T10:11:35;15.10;63.70
17284;DHT22;8760;52.248;20.952;2024-01-30T10:14:02;14.70;65.90
17284;DHT22;8760;52.248;20.952;2024-01-30T10:16:29;15.20;62.40
17284;DHT22;8760;52.248;20.952;2024-01-30T10:18:56;14.80;62.60
17284;DHT22;8760;52.248;20.952;2024-01-30T10:21:23;15.30;61.70
17284;DHT22;8760;52.248;20.952;2024-01-30T10:23:51;15.70;60.90
17284;DHT22;8760;52.248;20.952;2024-01-30T10:26:17;15.60;61.40
17284;DHT22;8760;52.248;20.952;2024-01-30T10:28:45;15.90;58.90
17284;DHT22;8760;52.248;20.952;2024-01-30T10:31:16;16.30;58.50
17284;DHT22;8760;52.248;20.952;2024-01-30T10:33:44;16.30;59.10
17284;DHT22;8760;52.248;20.952;2024-01-30T10:36:13;16.50;57.70
17284;DHT22;8760;52.248;20.952;2024-01-30T10:38:42;16.10;58.10
17284;DHT22;8760;52.248;20.952;2024-01-30T10:41:13;15.20;58.50
17284;DHT22;8760;52.248;20.952;2024-01-30T10:43:54;16.20;58.50
17284;DHT22;8760;52.248;20.952;2024-01-30T10:46:30;16.50;58.60
17284;DHT22;8760;52.248;20.952;2024-01-30T10:48:58;16.60;56.10
17284;DHT22;8760;52.248;20.952;2024-01-30T10:51:26;16.10;59.90
17284;DHT22;8760;52.248;20.952;2024-01-30T10:53:53;16.70;60.30
17284;DHT22;8760;52.248;20.952;2024-01-30T10:56:23;16.90;56.80
17284;DHT22;8760;52.248;20.952;2024-01-30T10:58:51;17.50;55.60
17284;DHT22;8760;52.248;20.952;2024-01-30T11:01:19;18.00;53.50
17284;DHT22;8760;52.248;20.952;2024-01-30T11:03:48;18.20;52.90
17284;DHT22;8760;52.248;20.952;2024-01-30T11:06:15;18.20;53.10
17284;DHT22;8760;52.248;20.952;2024-01-30T11:08:44;17.80;54.10
17284;DHT22;8760;52.248;20.952;2024-01-30T11:11:11;18.40;52.00
17284;DHT22;8760;52.248;20.952;2024-01-30T11:13:40;17.90;52.30
17284;DHT22;8760;52.248;20.952;2024-01-30T11:16:11;17.60;52.70
17284;DHT22;8760;52.248;20.952;2024-01-30T11:18:39;17.30;54.10
17284;DHT22;8760;52.248;20.952;2024-01-30T11:21:05;16.60;53.50
17284;DHT22;8760;52.248;20.952;2024-01-30T11:23:34;16.80;54.70
17284;DHT22;8760;52.248;20.952;2024-01-30T11:26:01;16.90;54.10
17284;DHT22;8760;52.248;20.952;2024-01-30T11:28:32;16.80;53.40
17284;DHT22;8760;52.248;20.952;2024-01-30T11:31:05;16.80;53.60
17284;DHT22;8760;52.248;20.952;2024-01-30T11:33:32;17.40;52.50
17284;DHT22;8760;52.248;20.952;2024-01-30T11:36:01;16.80;52.10
17284;DHT22;8760;52.248;20.952;2024-01-30T11:38:28;17.30;53.20
17284;DHT22;8760;52.248;20.952;2024-01-30T11:40:55;17.60;52.60
17284;DHT22;8760;52.248;20.952;2024-01-30T11:43:23;16.60;51.90
17284;DHT22;8760;52.248;20.952;2024-01-30T11:45:50;17.40;52.90
17284;DHT22;8760;52.248;20.952;2024-01-30T11:48:19;17.60;51.60
17284;DHT22;8760;52.248;20.952;2024-01-30T11:50:46;17.80;51.30
17284;DHT22;8760;52.248;20.952;2024-01-30T11:53:15;17.90;51.90
17284;DHT22;8760;52.248;20.952;2024-01-30T11:55:42;17.70;52.70
17284;DHT22;8760;52.248;20.952;2024-01-30T11:58:15;17.80;52.40
17284;DHT22;8760;52.248;20.952;2024-01-30T12:00:42;17.70;53.20
17284;DHT22;8760;52.248;20.952;2024-01-30T12:03:11;18.10;52.80
17284;DHT22;8760;52.248;20.952;2024-01-30T12:05:39;18.40;52.20
17284;DHT22;8760;52.248;20.952;2024-01-30T12:08:15;17.50;51.50
17284;DHT22;8760;52.248;20.952;2024-01-30T12:10:42;18.10;53.10
17284;DHT22;8760;52.248;20.952;2024-01-30T12:13:10;18.00;53.00
17284;DHT22;8760;52.248;20.952;2024-01-30T12:15:37;18.30;51.60
17284;DHT22;8760;52.248;20.952;2024-01-30T12:18:05;18.00;52.30
17284;DHT22;8760;52.248;20.952;2024-01-30T12:20:32;17.60;52.70
17284;DHT22;8760;52.248;20.952;2024-01-30T12:23:00;17.70;53.20
17284;DHT22;8760;52.248;20.952;2024-01-30T12:25:30;17.20;54.20
17284;DHT22;8760;52.248;20.952;2024-01-30T12:27:57;17.80;52.60
17284;DHT22;8760;52.248;20.952;2024-01-30T12:30:24;17.60;54.50
17284;DHT22;8760;52.248;20.952;2024-01-30T12:32:51;18.30;53.60
17284;DHT22;8760;52.248;20.952;2024-01-30T12:35:19;18.10;54.20
17284;DHT22;8760;52.248;20.952;2024-01-30T12:37:47;18.80;52.90
17284;DHT22;8760;52.248;20.952;2024-01-30T12:40:16;19.00;52.60
17284;DHT22;8760;52.248;20.952;2024-01-30T12:42:46;18.70;52.30
17284;DHT22;8760;52.248;20.952;2024-01-30T12:45:15;18.20;53.30
17284;DHT22;8760;52.248;20.952;2024-01-30T12:47:42;17.00;53.20
17284;DHT22;8760;52.248;20.952;2024-01-30T12:50:09;16.20;54.50
17284;DHT22;8760;52.248;20.952;2024-01-30T12:52:37;15.90;55.30
17284;DHT22;8760;52.248;20.952;2024-01-30T12:55:05;16.10;54.50
17284;DHT22;8760;52.248;20.952;2024-01-30T12:57:33;16.00;54.50
17284;DHT22;8760;52.248;20.952;2024-01-30T13:00:02;15.50;55.80
17284;DHT22;8760;52.248;20.952;2024-01-30T13:02:29;14.80;55.40
17284;DHT22;8760;52.248;20.952;2024-01-30T13:05:02;15.10;56.40
17284;DHT22;8760;52.248;20.952;2024-01-30T13:07:29;14.50;57.40
17284;DHT22;8760;52.248;20.952;2024-01-30T13:09:56;14.00;57.80
17284;DHT22;8760;52.248;20.952;2024-01-30T13:12:27;13.60;58.30
17284;DHT22;8760;52.248;20.952;2024-01-30T13:14:56;13.70;59.30
17284;DHT22;8760;52.248;20.952;2024-01-30T13:17:23;14.30;57.70
17284;DHT22;8760;52.248;20.952;2024-01-30T13:19:50;14.90;57.60
17284;DHT22;8760;52.248;20.952;2024-01-30T13:22:17;15.50;56.60
17284;DHT22;8760;52.248;20.952;2024-01-30T13:24:44;16.10;55.70
17284;DHT22;8760;52.248;20.952;2024-01-30T13:27:10;16.80;55.10
17284;DHT22;8760;52.248;20.952;2024-01-30T13:29:37;17.50;53.80
17284;DHT22;8760;52.248;20.952;2024-01-30T13:32:06;17.50;53.10
17284;DHT22;8760;52.248;20.952;2024-01-30T13:34:33;17.30;53.60
17284;DHT22;8760;52.248;20.952;2024-01-30T13:37:00;17.00;53.50
17284;DHT22;8760;52.248;20.952;2024-01-30T13:39:26;16.70;53.80
17284;DHT22;8760;52.248;20.952;2024-01-30T13:41:54;15.70;54.60
17284;DHT22;8760;52.248;20.952;2024-01-30T13:44:21;14.80;55.60
17284;DHT22;8760;52.248;20.952;2024-01-30T13:46:48;13.40;57.60
17284;DHT22;8760;52.248;20.952;2024-01-30T13:49:16;12.30;59.50
17284;DHT22;8760;52.248;20.952;2024-01-30T13:51:43;11.60;61.90
17284;DHT22;8760;52.248;20.952;2024-01-30T13:54:10;11.10;63.70
17284;DHT22;8760;52.248;20.952;2024-01-30T13:56:37;10.70;64.80
17284;DHT22;8760;52.248;20.952;2024-01-30T13:59:04;10.20;66.40
17284;DHT22;8760;52.248;20.952;2024-01-30T14:01:31;10.10;68.30
17284;DHT22;8760;52.248;20.952;2024-01-30T14:03:58;10.00;67.30
17284;DHT22;8760;52.248;20.952;2024-01-30T14:06:26;9.90;67.60
17284;DHT22;8760;52.248;20.952;2024-01-30T14:08:53;9.70;68.60
17284;DHT22;8760;52.248;20.952;2024-01-30T14:11:20;9.50;68.80
17284;DHT22;8760;52.248;20.952;2024-01-30T14:13:47;9.40;69.50
17284;DHT22;8760;52.248;20.952;2024-01-30T14:16:14;9.30;69.50
17284;DHT22;8760;52.248;20.952;2024-01-30T14:18:40;9.20;70.60
17284;DHT22;8760;52.248;20.952;2024-01-30T14:21:08;9.40;70.60
17284;DHT22;8760;52.248;20.952;2024-01-30T14:23:38;9.80;69.70
17284;DHT22;8760;52.248;20.952;2024-01-30T14:26:05;9.90;69.00
17284;DHT22;8760;52.248;20.952;2024-01-30T14:28:32;9.70;69.60
17284;DHT22;8760;52.248;20.952;2024-01-30T14:30:59;9.40;70.30
17284;DHT22;8760;52.248;20.952;2024-01-30T14:33:26;9.10;71.80
17284;DHT22;8760;52.248;20.952;2024-01-30T14:35:53;8.80;72.30
17284;DHT22;8760;52.248;20.952;2024-01-30T14:38:19;8.70;73.30
17284;DHT22;8760;52.248;20.952;2024-01-30T14:40:48;8.50;74.90
17284;DHT22;8760;52.248;20.952;2024-01-30T14:43:14;8.40;75.40
17284;DHT22;8760;52.248;20.952;2024-01-30T14:45:41;8.30;75.40
17284;DHT22;8760;52.248;20.952;2024-01-30T14:48:11;8.20;76.00
17284;DHT22;8760;52.248;20.952;2024-01-30T14:50:38;8.10;76.20
17284;DHT22;8760;52.248;20.952;2024-01-30T14:53:05;8.10;76.70
17284;DHT22;8760;52.248;20.952;2024-01-30T14:55:32;8.00;77.70
17284;DHT22;8760;52.248;20.952;2024-01-30T14:58:00;8.00;77.90
17284;DHT22;8760;52.248;20.952;2024-01-30T15:00:27;7.90;78.10
17284;DHT22;8760;52.248;20.952;2024-01-30T15:02:54;7.80;78.70
17284;DHT22;8760;52.248;20.952;2024-01-30T15:05:23;7.80;79.30
17284;DHT22;8760;52.248;20.952;2024-01-30T15:07:50;7.70;79.50
17284;DHT22;8760;52.248;20.952;2024-01-30T15:10:17;7.70;79.70
17284;DHT22;8760;52.248;20.952;2024-01-30T15:12:44;7.60;80.20
17284;DHT22;8760;52.248;20.952;2024-01-30T15:15:12;7.60;80.30
17284;DHT22;8760;52.248;20.952;2024-01-30T15:17:39;7.60;80.60
17284;DHT22;8760;52.248;20.952;2024-01-30T15:20:07;7.50;81.20
17284;DHT22;8760;52.248;20.952;2024-01-30T15:22:33;7.50;81.00
17284;DHT22;8760;52.248;20.952;2024-01-30T15:25:00;7.40;81.60
17284;DHT22;8760;52.248;20.952;2024-01-30T15:27:28;7.40;81.80
17284;DHT22;8760;52.248;20.952;2024-01-30T15:29:55;7.30;82.20
17284;DHT22;8760;52.248;20.952;2024-01-30T15:32:24;7.30;82.70
17284;DHT22;8760;52.248;20.952;2024-01-30T15:34:51;7.20;83.30
17284;DHT22;8760;52.248;20.952;2024-01-30T15:37:18;7.20;83.90
17284;DHT22;8760;52.248;20.952;2024-01-30T15:39:45;7.10;83.70
17284;DHT22;8760;52.248;20.952;2024-01-30T15:42:12;7.20;84.60